Ersov, Russia
Current Conditions -  °F | °C
As of 5:30 AM on Friday 28 Nov 2014 (Local Time) from UWSS Reporting Station
Haze Haze  
Wind Chill:   Ceiling: 300
Heat Index:   Visibility: 1.2mi
Dew Point:   Wind: 0mph
Humidity: 92%   Direction: NA
Pressure: 30.59"   Gusts: NA
Location:  51.37°N, 48.3°E
Report Text: UWSS 280230Z 00000MPS 2000 BR BKN003 M14/M15 Q1036 120///60NOSIG RMK QFE765
Loading
Personal Weather Stations






























Interactive Weather Map New forecast layout! Learn more

10-Day Weather Forecast

Advertisements
Track Severe Weather on mobile